GIA009 WIMM-WIDD
Flight info
| Callsign | GIA009 |
|---|---|
| Flight time | N/A |
| Altitude | 35000 |
| Route | AKPAG L762 MIBEL |
| Aircraft | B738/M-SDE2E3FGHIRWXY/LB1 |
Departure
| Time | 2026-04-27 10:51 |
|---|---|
| Airport | Kualanamu International Airport (WIMM) |
Arrival
| Time | N/A |
|---|---|
| Airport | Hang Nadim International Airport (WIDD) |
| Time | Latitude | Longitude | Altitude | Speed | Heading |
|---|---|---|---|---|---|
| 2026-04-27 10:09 | 3.63761 | 98.87953 | 39 ft | 0 kts | 225° |
| 2026-04-27 10:42 | 3.63764 | 98.87956 | 39 ft | 4 kts | 225° |
| 2026-04-27 10:42 | 3.63776 | 98.87969 | 37 ft | 4 kts | 230° |
| 2026-04-27 10:42 | 3.63793 | 98.87990 | 39 ft | 4 kts | 239° |
| 2026-04-27 10:43 | 3.63805 | 98.88014 | 38 ft | 4 kts | 253° |
| 2026-04-27 10:43 | 3.63806 | 98.88019 | 37 ft | 1 kts | 256° |
| 2026-04-27 10:45 | 3.63807 | 98.88017 | 38 ft | 1 kts | 282° |
| 2026-04-27 10:45 | 3.63819 | 98.88012 | 38 ft | 7 kts | 334° |
| 2026-04-27 10:45 | 3.63885 | 98.87968 | 39 ft | 16 kts | 338° |
| 2026-04-27 10:45 | 3.63992 | 98.88030 | 39 ft | 22 kts | 45° |
| 2026-04-27 10:46 | 3.64090 | 98.88126 | 39 ft | 13 kts | 34° |
| 2026-04-27 10:46 | 3.64195 | 98.88085 | 39 ft | 24 kts | 315° |
| 2026-04-27 10:46 | 3.64290 | 98.87974 | 39 ft | 21 kts | 282° |
| 2026-04-27 10:46 | 3.64245 | 98.87895 | 39 ft | 18 kts | 225° |
| 2026-04-27 10:47 | 3.64123 | 98.87775 | 39 ft | 31 kts | 225° |
| 2026-04-27 10:47 | 3.63941 | 98.87594 | 39 ft | 42 kts | 224° |
| 2026-04-27 10:47 | 3.63771 | 98.87426 | 39 ft | 35 kts | 225° |
| 2026-04-27 10:47 | 3.63626 | 98.87281 | 39 ft | 23 kts | 232° |
| 2026-04-27 10:48 | 3.63627 | 98.87166 | 38 ft | 18 kts | 251° |
| 2026-04-27 10:48 | 3.63533 | 98.87061 | 38 ft | 23 kts | 224° |
| 2026-04-27 10:48 | 3.63402 | 98.86931 | 38 ft | 30 kts | 226° |
| 2026-04-27 10:48 | 3.63253 | 98.86782 | 38 ft | 30 kts | 225° |
| 2026-04-27 10:49 | 3.63104 | 98.86636 | 38 ft | 29 kts | 224° |
| 2026-04-27 10:49 | 3.62968 | 98.86498 | 38 ft | 27 kts | 225° |
| 2026-04-27 10:49 | 3.62837 | 98.86368 | 39 ft | 26 kts | 225° |
| 2026-04-27 10:49 | 3.62715 | 98.86247 | 39 ft | 24 kts | 225° |
| 2026-04-27 10:50 | 3.62601 | 98.86133 | 39 ft | 23 kts | 225° |
| 2026-04-27 10:50 | 3.62508 | 98.86016 | 38 ft | 21 kts | 256° |
| 2026-04-27 10:50 | 3.62582 | 98.85906 | 35 ft | 21 kts | 348° |
| 2026-04-27 10:50 | 3.62700 | 98.85978 | 37 ft | 21 kts | 46° |
| 2026-04-27 10:51 | 3.62930 | 98.86207 | 37 ft | 89 kts | 45° |
| 2026-04-27 10:51 | 3.63569 | 98.86837 | 104 ft | 160 kts | 45° |
| 2026-04-27 10:51 | 3.64434 | 98.87687 | 764 ft | 186 kts | 47° |
| 2026-04-27 10:51 | 3.65360 | 98.88669 | 1525 ft | 208 kts | 57° |
| 2026-04-27 10:52 | 3.65767 | 98.90127 | 1794 ft | 235 kts | 97° |
| 2026-04-27 10:52 | 3.65342 | 98.91767 | 2099 ft | 253 kts | 110° |
| 2026-04-27 10:52 | 3.64709 | 98.93457 | 2745 ft | 262 kts | 112° |
| 2026-04-27 10:52 | 3.64074 | 98.95161 | 3731 ft | 259 kts | 110° |
| 2026-04-27 10:53 | 3.63471 | 98.96863 | 4681 ft | 262 kts | 109° |
| 2026-04-27 10:53 | 3.62179 | 99.00306 | 6383 ft | 271 kts | 124° |
| 2026-04-27 10:53 | 3.60896 | 99.01723 | 7157 ft | 276 kts | 134° |
| 2026-04-27 10:54 | 3.59514 | 99.03073 | 7985 ft | 280 kts | 134° |
| 2026-04-27 10:54 | 3.58101 | 99.04439 | 8797 ft | 284 kts | 134° |
| 2026-04-27 10:54 | 3.56669 | 99.05831 | 9620 ft | 288 kts | 134° |
| 2026-04-27 10:54 | 3.55229 | 99.07243 | 10381 ft | 291 kts | 134° |
| 2026-04-27 10:55 | 3.53780 | 99.08673 | 11133 ft | 295 kts | 134° |
| 2026-04-27 10:55 | 3.52312 | 99.10130 | 11907 ft | 298 kts | 133° |
| 2026-04-27 10:55 | 3.50840 | 99.11597 | 12659 ft | 302 kts | 133° |
| 2026-04-27 10:55 | 3.49338 | 99.13097 | 13424 ft | 306 kts | 133° |
| 2026-04-27 10:56 | 3.47821 | 99.14615 | 14104 ft | 310 kts | 133° |
| 2026-04-27 10:56 | 3.46292 | 99.16146 | 14795 ft | 312 kts | 133° |
| 2026-04-27 10:56 | 3.44749 | 99.17692 | 15488 ft | 315 kts | 133° |
| 2026-04-27 10:56 | 3.43195 | 99.19250 | 16171 ft | 318 kts | 133° |
| 2026-04-27 10:57 | 3.41624 | 99.20825 | 16845 ft | 321 kts | 133° |
| 2026-04-27 10:57 | 3.40058 | 99.22396 | 17520 ft | 324 kts | 133° |
| 2026-04-27 10:57 | 3.38456 | 99.24003 | 18173 ft | 327 kts | 133° |
| 2026-04-27 10:57 | 3.36838 | 99.25626 | 18746 ft | 330 kts | 133° |
| 2026-04-27 10:58 | 3.35210 | 99.27260 | 19317 ft | 334 kts | 133° |
| 2026-04-27 10:58 | 3.33563 | 99.28912 | 19885 ft | 337 kts | 133° |
| 2026-04-27 10:58 | 3.31900 | 99.30581 | 20447 ft | 340 kts | 132° |
| 2026-04-27 10:58 | 3.30215 | 99.32270 | 21011 ft | 344 kts | 132° |
| 2026-04-27 10:59 | 3.28519 | 99.33972 | 21580 ft | 347 kts | 132° |
| 2026-04-27 10:59 | 3.26803 | 99.35694 | 22126 ft | 350 kts | 132° |
| 2026-04-27 10:59 | 3.25074 | 99.37428 | 22672 ft | 354 kts | 132° |
| 2026-04-27 11:00 | 3.21881 | 99.41198 | 23669 ft | 358 kts | 124° |
| 2026-04-27 11:00 | 3.20352 | 99.43216 | 23772 ft | 371 kts | 124° |
| 2026-04-27 11:00 | 3.18770 | 99.45322 | 23803 ft | 386 kts | 124° |
| 2026-04-27 11:00 | 3.17124 | 99.47506 | 23808 ft | 401 kts | 124° |
| 2026-04-27 11:01 | 3.15415 | 99.49758 | 23813 ft | 414 kts | 125° |
| 2026-04-27 11:01 | 3.13672 | 99.52038 | 23805 ft | 419 kts | 125° |
| 2026-04-27 11:01 | 3.11899 | 99.54342 | 23790 ft | 416 kts | 125° |
| 2026-04-27 11:01 | 3.10130 | 99.56635 | 23792 ft | 415 kts | 125° |
| 2026-04-27 11:02 | 3.08356 | 99.58932 | 23852 ft | 420 kts | 125° |
| 2026-04-27 11:02 | 3.06565 | 99.61250 | 24206 ft | 421 kts | 125° |
| 2026-04-27 11:02 | 3.04773 | 99.63571 | 24631 ft | 421 kts | 125° |
| 2026-04-27 11:02 | 3.02979 | 99.65892 | 25006 ft | 422 kts | 125° |
| 2026-04-27 11:03 | 3.01179 | 99.68223 | 25334 ft | 424 kts | 125° |
| 2026-04-27 11:03 | 2.99372 | 99.70564 | 25646 ft | 427 kts | 126° |
| 2026-04-27 11:03 | 2.97552 | 99.72921 | 25961 ft | 429 kts | 126° |
| 2026-04-27 11:03 | 2.95747 | 99.75257 | 26275 ft | 431 kts | 126° |
| 2026-04-27 11:04 | 2.93910 | 99.77636 | 26583 ft | 433 kts | 126° |
| 2026-04-27 11:04 | 2.92067 | 99.80023 | 26896 ft | 435 kts | 126° |
| 2026-04-27 11:04 | 2.90212 | 99.82424 | 27205 ft | 437 kts | 126° |
| 2026-04-27 11:04 | 2.88353 | 99.84830 | 27502 ft | 439 kts | 126° |
| 2026-04-27 11:05 | 2.86480 | 99.87255 | 27779 ft | 441 kts | 126° |
| 2026-04-27 11:05 | 2.84598 | 99.89690 | 28052 ft | 443 kts | 126° |
| 2026-04-27 11:05 | 2.82708 | 99.92136 | 28328 ft | 445 kts | 126° |
| 2026-04-27 11:05 | 2.80811 | 99.94592 | 28601 ft | 448 kts | 126° |
| 2026-04-27 11:06 | 2.78898 | 99.97067 | 28852 ft | 450 kts | 126° |
| 2026-04-27 11:06 | 2.76980 | 99.99550 | 29107 ft | 452 kts | 126° |
| 2026-04-27 11:06 | 2.75048 | 100.02050 | 29359 ft | 454 kts | 126° |
| 2026-04-27 11:06 | 2.73113 | 100.04553 | 29611 ft | 456 kts | 126° |
| 2026-04-27 11:07 | 2.71169 | 100.07068 | 29851 ft | 458 kts | 126° |
| 2026-04-27 11:07 | 2.69240 | 100.09563 | 30049 ft | 460 kts | 126° |
| 2026-04-27 11:07 | 2.67278 | 100.12103 | 30249 ft | 461 kts | 127° |
| 2026-04-27 11:07 | 2.65315 | 100.14641 | 30531 ft | 460 kts | 127° |
| 2026-04-27 11:08 | 2.63361 | 100.17168 | 30853 ft | 459 kts | 127° |
| 2026-04-27 11:08 | 2.61410 | 100.19692 | 31168 ft | 458 kts | 127° |
| 2026-04-27 11:08 | 2.59463 | 100.22209 | 31469 ft | 457 kts | 127° |
| 2026-04-27 11:08 | 2.57519 | 100.24724 | 31757 ft | 457 kts | 127° |
| 2026-04-27 11:09 | 2.55576 | 100.27237 | 32064 ft | 456 kts | 127° |
| 2026-04-27 11:09 | 2.53639 | 100.29743 | 32382 ft | 455 kts | 127° |
| 2026-04-27 11:09 | 2.51700 | 100.32249 | 32696 ft | 454 kts | 127° |
| 2026-04-27 11:09 | 2.49770 | 100.34745 | 33019 ft | 453 kts | 127° |
| 2026-04-27 11:10 | 2.47842 | 100.37239 | 33327 ft | 453 kts | 127° |
| 2026-04-27 11:10 | 2.45912 | 100.39734 | 33618 ft | 453 kts | 127° |
| 2026-04-27 11:10 | 2.43990 | 100.42220 | 33907 ft | 452 kts | 127° |
| 2026-04-27 11:10 | 2.42066 | 100.44708 | 34189 ft | 451 kts | 127° |
| 2026-04-27 11:11 | 2.40151 | 100.47185 | 34453 ft | 450 kts | 127° |
| 2026-04-27 11:11 | 2.38233 | 100.49664 | 34708 ft | 450 kts | 127° |
| 2026-04-27 11:11 | 2.34494 | 100.54727 | 34805 ft | 456 kts | 122° |
| 2026-04-27 11:12 | 2.31212 | 100.60189 | 34807 ft | 464 kts | 120° |
| 2026-04-27 11:12 | 2.27958 | 100.65803 | 34807 ft | 470 kts | 120° |
| 2026-04-27 11:13 | 2.24636 | 100.71464 | 34803 ft | 473 kts | 120° |
| 2026-04-27 11:13 | 2.21279 | 100.77115 | 34799 ft | 475 kts | 120° |
| 2026-04-27 11:14 | 2.17885 | 100.82807 | 34799 ft | 475 kts | 120° |
| 2026-04-27 11:14 | 2.14497 | 100.88487 | 34799 ft | 475 kts | 120° |
| 2026-04-27 11:15 | 2.11121 | 100.94149 | 34796 ft | 474 kts | 120° |
| 2026-04-27 11:15 | 2.07743 | 100.99814 | 34799 ft | 473 kts | 120° |
| 2026-04-27 11:16 | 2.04371 | 101.05471 | 34799 ft | 473 kts | 120° |
| 2026-04-27 11:16 | 2.01026 | 101.11083 | 34797 ft | 472 kts | 120° |
| 2026-04-27 11:17 | 1.97662 | 101.16724 | 34800 ft | 472 kts | 120° |
| 2026-04-27 11:17 | 1.94302 | 101.22358 | 34801 ft | 472 kts | 120° |
| 2026-04-27 11:18 | 1.90942 | 101.27992 | 34803 ft | 471 kts | 120° |
| 2026-04-27 11:18 | 1.87590 | 101.33613 | 34814 ft | 470 kts | 120° |
| 2026-04-27 11:19 | 1.84247 | 101.39215 | 34796 ft | 467 kts | 120° |
| 2026-04-27 11:19 | 1.80930 | 101.44776 | 34805 ft | 465 kts | 120° |
| 2026-04-27 11:20 | 1.77650 | 101.50274 | 34808 ft | 464 kts | 120° |
| 2026-04-27 11:20 | 1.74349 | 101.55806 | 34809 ft | 463 kts | 120° |
| 2026-04-27 11:21 | 1.71053 | 101.61331 | 34812 ft | 463 kts | 120° |
| 2026-04-27 11:21 | 1.67752 | 101.66862 | 34811 ft | 463 kts | 120° |
| 2026-04-27 11:22 | 1.64454 | 101.72389 | 34813 ft | 463 kts | 120° |
| 2026-04-27 11:22 | 1.61155 | 101.77916 | 34814 ft | 463 kts | 120° |
| 2026-04-27 11:23 | 1.57856 | 101.83445 | 34818 ft | 463 kts | 120° |
| 2026-04-27 11:23 | 1.54546 | 101.88989 | 34816 ft | 464 kts | 120° |
| 2026-04-27 11:24 | 1.51258 | 101.94497 | 34818 ft | 464 kts | 120° |
| 2026-04-27 11:24 | 1.47951 | 102.00038 | 34817 ft | 464 kts | 120° |
| 2026-04-27 11:25 | 1.44641 | 102.05582 | 34817 ft | 464 kts | 120° |
| 2026-04-27 11:25 | 1.41339 | 102.11114 | 34819 ft | 464 kts | 120° |
| 2026-04-27 11:26 | 1.38434 | 102.16851 | 34827 ft | 462 kts | 111° |
| 2026-04-27 11:26 | 1.36126 | 102.22860 | 34813 ft | 462 kts | 110° |
| 2026-04-27 11:27 | 1.33843 | 102.28860 | 34821 ft | 462 kts | 110° |
| 2026-04-27 11:27 | 1.31545 | 102.34811 | 34821 ft | 462 kts | 110° |
| 2026-04-27 11:28 | 1.29213 | 102.40793 | 34819 ft | 462 kts | 111° |
| 2026-04-27 11:28 | 1.26881 | 102.46765 | 34820 ft | 461 kts | 111° |
| 2026-04-27 11:29 | 1.24588 | 102.52639 | 34693 ft | 440 kts | 111° |
| 2026-04-27 11:29 | 1.23490 | 102.55453 | 34532 ft | 429 kts | 111° |
| 2026-04-27 11:29 | 1.22419 | 102.58196 | 34372 ft | 419 kts | 111° |
| 2026-04-27 11:30 | 1.21375 | 102.60872 | 34301 ft | 406 kts | 111° |
| 2026-04-27 11:30 | 1.20353 | 102.63490 | 33891 ft | 404 kts | 111° |
| 2026-04-27 11:30 | 1.19331 | 102.66112 | 33411 ft | 403 kts | 111° |
| 2026-04-27 11:30 | 1.18311 | 102.68727 | 32868 ft | 403 kts | 111° |
| 2026-04-27 11:31 | 1.17291 | 102.71339 | 32337 ft | 404 kts | 111° |
| 2026-04-27 11:31 | 1.16272 | 102.73951 | 31810 ft | 404 kts | 111° |
| 2026-04-27 11:31 | 1.15596 | 102.75683 | 31470 ft | 404 kts | 111° |
| 2026-04-27 11:31 | 1.14574 | 102.78303 | 30958 ft | 405 kts | 110° |
| 2026-04-27 11:32 | 1.13551 | 102.80923 | 30458 ft | 405 kts | 110° |
| 2026-04-27 11:32 | 1.12195 | 102.84398 | 29791 ft | 405 kts | 110° |
| 2026-04-27 11:32 | 1.11505 | 102.86166 | 29395 ft | 405 kts | 110° |
| 2026-04-27 11:32 | 1.10153 | 102.89630 | 28650 ft | 404 kts | 110° |
| 2026-04-27 11:33 | 1.09461 | 102.91403 | 28274 ft | 403 kts | 110° |
| 2026-04-27 11:33 | 1.08111 | 102.94861 | 27558 ft | 402 kts | 110° |
| 2026-04-27 11:33 | 1.07097 | 102.97461 | 27012 ft | 402 kts | 110° |
| 2026-04-27 11:33 | 1.06412 | 102.99216 | 26658 ft | 401 kts | 110° |
| 2026-04-27 11:34 | 1.05401 | 103.01806 | 26144 ft | 400 kts | 110° |
| 2026-04-27 11:34 | 1.04389 | 103.04400 | 25640 ft | 399 kts | 110° |
| 2026-04-27 11:34 | 1.03394 | 103.06947 | 25133 ft | 398 kts | 110° |
| 2026-04-27 11:34 | 1.02389 | 103.09524 | 24648 ft | 397 kts | 110° |
| 2026-04-27 11:35 | 1.01386 | 103.12092 | 24164 ft | 396 kts | 110° |
| 2026-04-27 11:35 | 1.00387 | 103.14651 | 23694 ft | 395 kts | 110° |
| 2026-04-27 11:35 | 0.99433 | 103.17218 | 23181 ft | 393 kts | 107° |
| 2026-04-27 11:35 | 0.98666 | 103.19806 | 22610 ft | 384 kts | 105° |
| 2026-04-27 11:36 | 0.97974 | 103.22349 | 22052 ft | 375 kts | 104° |
| 2026-04-27 11:36 | 0.97313 | 103.24841 | 21501 ft | 367 kts | 104° |
| 2026-04-27 11:36 | 0.96664 | 103.27283 | 20990 ft | 360 kts | 104° |
| 2026-04-27 11:36 | 0.96025 | 103.29669 | 20512 ft | 352 kts | 104° |
| 2026-04-27 11:37 | 0.95392 | 103.32011 | 20040 ft | 345 kts | 104° |
| 2026-04-27 11:37 | 0.95181 | 103.32791 | 19883 ft | 343 kts | 104° |